createdAt,value
2023-01-07T00:01:28.885Z,97.90
2023-01-07T00:03:57.461Z,98.00
2023-01-07T00:06:27.074Z,98.00
2023-01-07T00:08:57.082Z,98.30
2023-01-07T00:11:35.962Z,98.30
2023-01-07T00:14:04.923Z,98.30
2023-01-07T00:16:33.423Z,98.30
2023-01-07T00:19:01.856Z,98.30
2023-01-07T00:21:29.390Z,98.30
2023-01-07T00:23:58.530Z,98.30
2023-01-07T00:26:27.879Z,98.30
2023-01-07T00:28:54.673Z,98.30
2023-01-07T00:31:25.690Z,98.30
2023-01-07T00:33:55.531Z,98.30
2023-01-07T00:36:24.464Z,98.30
2023-01-07T00:38:55.973Z,98.30
2023-01-07T00:41:23.052Z,98.30
2023-01-07T00:43:49.869Z,98.30
2023-01-07T00:46:16.940Z,98.30
2023-01-07T00:48:44.923Z,98.30
2023-01-07T00:51:13.086Z,98.30
2023-01-07T00:53:39.895Z,98.30
2023-01-07T00:56:06.840Z,98.30
2023-01-07T00:58:33.702Z,98.30
2023-01-07T01:01:02.197Z,98.30
2023-01-07T01:03:31.567Z,98.30
2023-01-07T01:06:03.899Z,98.30
2023-01-07T01:08:32.821Z,98.30
2023-01-07T01:11:05.020Z,98.30
2023-01-07T01:13:32.038Z,98.30
2023-01-07T01:15:58.844Z,98.30
2023-01-07T01:18:25.859Z,98.30
2023-01-07T01:20:52.557Z,98.30
2023-01-07T01:23:19.217Z,98.30
2023-01-07T01:25:45.872Z,98.30
2023-01-07T01:28:12.561Z,98.30
2023-01-07T01:30:39.215Z,98.30
2023-01-07T01:33:06.906Z,98.30
2023-01-07T01:35:34.001Z,98.30
2023-01-07T01:38:01.154Z,98.30
2023-01-07T01:40:30.870Z,98.30
2023-01-07T01:42:57.858Z,98.30
2023-01-07T01:45:25.816Z,98.30
2023-01-07T01:47:59.002Z,98.30
2023-01-07T01:50:36.455Z,98.30
2023-01-07T01:53:07.486Z,98.30
2023-01-07T01:55:43.163Z,98.30
2023-01-07T01:58:21.943Z,98.30
2023-01-07T02:00:49.049Z,98.30
2023-01-07T02:03:19.615Z,98.30
2023-01-07T02:05:47.627Z,98.30
2023-01-07T02:08:21.821Z,98.30
2023-01-07T02:11:02.441Z,98.30
2023-01-07T02:13:57.878Z,98.30
2023-01-07T02:16:46.205Z,98.30
2023-01-07T02:19:22.190Z,98.30
2023-01-07T02:22:15.092Z,98.30
2023-01-07T02:25:17.039Z,98.30
2023-01-07T02:28:06.009Z,98.30
2023-01-07T02:30:48.233Z,98.30
2023-01-07T02:33:50.273Z,98.30
2023-01-07T02:36:51.170Z,98.30
2023-01-07T02:39:36.592Z,98.30
2023-01-07T02:42:21.440Z,98.30
2023-01-07T02:45:14.211Z,98.30
2023-01-07T02:47:51.136Z,98.30
2023-01-07T02:50:19.080Z,98.30
2023-01-07T02:52:45.936Z,98.30
2023-01-07T02:55:16.937Z,98.30
2023-01-07T02:57:58.694Z,98.30
2023-01-07T03:00:35.836Z,98.30
2023-01-07T03:03:25.680Z,98.30
2023-01-07T03:06:01.281Z,98.30
2023-01-07T03:08:33.753Z,98.30
2023-01-07T03:11:09.272Z,98.30
2023-01-07T03:13:38.278Z,98.30
2023-01-07T03:16:12.258Z,98.30
2023-01-07T03:18:49.548Z,98.30
2023-01-07T03:21:18.864Z,98.30
2023-01-07T03:23:51.772Z,98.30
2023-01-07T03:26:22.205Z,98.30
2023-01-07T03:28:51.407Z,98.30
2023-01-07T03:31:20.112Z,98.30
2023-01-07T03:33:59.643Z,98.30
2023-01-07T03:36:35.903Z,98.30
2023-01-07T03:39:03.083Z,98.30
2023-01-07T03:41:49.798Z,98.30
2023-01-07T03:44:16.488Z,98.30
2023-01-07T03:46:44.094Z,98.30
2023-01-07T03:49:11.182Z,98.30
2023-01-07T03:51:37.923Z,98.30
2023-01-07T03:54:05.261Z,98.30
2023-01-07T03:56:32.237Z,98.30
2023-01-07T03:58:58.986Z,98.30
2023-01-07T04:01:27.402Z,98.30
2023-01-07T04:03:54.366Z,98.30
2023-01-07T04:06:21.937Z,98.30
2023-01-07T04:08:48.723Z,98.30
2023-01-07T04:11:15.373Z,98.30
2023-01-07T04:13:42.188Z,98.30
2023-01-07T04:16:08.962Z,98.30
2023-01-07T04:18:35.813Z,98.30
2023-01-07T04:21:02.504Z,98.30
2023-01-07T04:23:30.520Z,98.30
2023-01-07T04:25:58.098Z,98.30
2023-01-07T04:28:26.268Z,98.30
2023-01-07T04:30:53.257Z,98.30
2023-01-07T04:33:21.630Z,98.30
2023-01-07T04:35:49.053Z,98.30
2023-01-07T04:38:16.708Z,98.30
2023-01-07T04:40:43.479Z,98.30
2023-01-07T04:43:10.317Z,98.30
2023-01-07T04:45:37.013Z,98.30
2023-01-07T04:48:03.905Z,98.30
2023-01-07T04:50:30.792Z,98.30
2023-01-07T04:52:57.733Z,98.30
2023-01-07T04:55:24.736Z,98.30
2023-01-07T04:57:51.523Z,98.30
2023-01-07T05:00:18.622Z,98.30
2023-01-07T05:02:48.291Z,98.30
2023-01-07T05:05:15.124Z,98.30
2023-01-07T05:07:42.635Z,98.30
2023-01-07T05:10:10.215Z,98.30
2023-01-07T05:12:37.356Z,98.30
2023-01-07T05:15:06.519Z,98.30
2023-01-07T05:17:35.701Z,98.30
2023-01-07T05:20:05.700Z,98.30
2023-01-07T05:22:32.369Z,98.30
2023-01-07T05:24:59.082Z,98.30
2023-01-07T05:27:27.397Z,98.30
2023-01-07T05:29:54.453Z,98.30
2023-01-07T05:32:21.268Z,98.30
2023-01-07T05:34:48.438Z,98.30
2023-01-07T05:37:15.912Z,98.30
2023-01-07T05:39:43.633Z,98.30
2023-01-07T05:42:13.586Z,98.30
2023-01-07T05:44:40.425Z,98.30
2023-01-07T05:47:07.054Z,98.30
2023-01-07T05:49:33.700Z,98.30
2023-01-07T05:52:00.342Z,98.30
2023-01-07T05:54:26.981Z,98.30
2023-01-07T05:56:53.619Z,98.30
2023-01-07T05:59:20.255Z,98.30
2023-01-07T06:01:46.907Z,98.30
2023-01-07T06:04:13.541Z,98.30
2023-01-07T06:06:40.212Z,98.30
2023-01-07T06:09:07.096Z,98.30
2023-01-07T06:11:33.918Z,98.30
2023-01-07T06:14:00.537Z,98.30
2023-01-07T06:16:27.289Z,98.30
2023-01-07T06:18:53.941Z,98.30
2023-01-07T06:21:21.484Z,98.30
2023-01-07T06:23:48.114Z,98.30
2023-01-07T06:26:14.763Z,98.30
2023-01-07T06:28:41.638Z,98.30
2023-01-07T06:31:10.605Z,98.30
2023-01-07T06:33:37.963Z,98.30
2023-01-07T06:36:05.259Z,98.30
2023-01-07T06:38:31.878Z,98.30
2023-01-07T06:40:58.826Z,98.30
2023-01-07T06:43:25.857Z,98.30
2023-01-07T06:45:52.916Z,98.30
2023-01-07T06:48:19.782Z,98.30
2023-01-07T06:50:46.553Z,98.30
2023-01-07T06:53:13.247Z,98.30
2023-01-07T06:55:39.989Z,98.30
2023-01-07T06:58:06.623Z,98.30
2023-01-07T07:00:33.361Z,98.30
2023-01-07T07:03:00.070Z,98.30
2023-01-07T07:05:28.131Z,98.30
2023-01-07T07:07:54.878Z,98.30
2023-01-07T07:10:21.620Z,98.30
2023-01-07T07:12:57.244Z,98.30
2023-01-07T07:15:23.879Z,98.30
2023-01-07T07:17:50.515Z,98.30
2023-01-07T07:20:17.290Z,98.30
2023-01-07T07:22:48.077Z,98.30
2023-01-07T07:25:15.513Z,98.30
2023-01-07T07:27:46.317Z,98.30
2023-01-07T07:30:16.401Z,98.30
2023-01-07T07:32:43.357Z,98.30
2023-01-07T07:35:11.144Z,98.30
2023-01-07T07:37:39.122Z,98.30
2023-01-07T07:40:07.076Z,98.30
2023-01-07T07:43:11.270Z,98.30
2023-01-07T07:45:20.422Z,98.30
2023-01-07T07:47:47.379Z,98.30
2023-01-07T07:50:14.108Z,98.30
2023-01-07T07:52:41.373Z,98.30
2023-01-07T07:55:20.109Z,98.30
2023-01-07T07:57:48.125Z,98.30
2023-01-07T08:00:15.200Z,98.30
2023-01-07T08:02:41.856Z,98.30
2023-01-07T08:05:11.247Z,98.30
2023-01-07T08:07:38.425Z,98.30
2023-01-07T08:10:06.057Z,98.30
2023-01-07T08:12:36.106Z,98.30
2023-01-07T08:15:03.527Z,98.30
2023-01-07T08:17:30.180Z,98.30
2023-01-07T08:19:56.998Z,98.30
2023-01-07T08:22:23.729Z,98.30
2023-01-07T08:24:50.380Z,98.30
2023-01-07T08:27:17.029Z,98.30
2023-01-07T08:29:43.667Z,98.30
2023-01-07T08:32:10.413Z,98.30
2023-01-07T08:34:37.142Z,98.30
2023-01-07T08:37:03.822Z,98.30
2023-01-07T08:39:33.208Z,98.30
2023-01-07T08:42:03.713Z,98.30
2023-01-07T08:44:30.349Z,98.30
2023-01-07T08:46:57.015Z,98.30
2023-01-07T08:49:24.132Z,98.30
2023-01-07T08:52:02.974Z,98.30
2023-01-07T08:54:29.774Z,98.30
2023-01-07T08:56:56.438Z,98.30
2023-01-07T08:59:23.180Z,98.30
2023-01-07T09:01:50.053Z,98.30
2023-01-07T09:04:23.531Z,98.30
2023-01-07T09:06:58.657Z,98.30
2023-01-07T09:09:25.360Z,98.30
2023-01-07T09:11:52.039Z,98.30
2023-01-07T09:14:18.699Z,98.10
2023-01-07T09:16:45.404Z,98.30
2023-01-07T09:19:12.089Z,98.00
2023-01-07T09:21:38.752Z,97.00
2023-01-07T09:24:05.527Z,96.40
2023-01-07T09:26:33.871Z,95.60
2023-01-07T09:29:05.162Z,95.00
2023-01-07T09:31:32.382Z,95.60
2023-01-07T09:33:59.073Z,95.40
2023-01-07T09:36:27.011Z,95.20
2023-01-07T09:38:54.068Z,94.60
2023-01-07T09:41:58.467Z,94.10
2023-01-07T09:44:55.110Z,94.00
2023-01-07T09:47:25.142Z,94.00
2023-01-07T09:49:58.367Z,94.30
2023-01-07T09:52:43.062Z,93.60
2023-01-07T09:55:20.926Z,93.60
2023-01-07T09:57:48.055Z,93.60
2023-01-07T10:00:22.208Z,93.50
2023-01-07T10:03:17.195Z,93.50
2023-01-07T10:06:00.605Z,93.30
2023-01-07T10:08:36.038Z,93.10
2023-01-07T10:11:24.812Z,92.80
2023-01-07T10:14:23.998Z,92.90
2023-01-07T10:17:10.221Z,92.30
2023-01-07T10:19:45.343Z,92.10
2023-01-07T10:22:37.055Z,92.40
2023-01-07T10:25:26.578Z,91.80
2023-01-07T10:27:56.033Z,91.90
2023-01-07T10:30:26.930Z,91.90
2023-01-07T10:33:11.466Z,92.00
2023-01-07T10:35:41.238Z,91.50
2023-01-07T10:38:20.313Z,91.90
2023-01-07T10:40:55.023Z,90.90
2023-01-07T10:43:51.593Z,91.20
2023-01-07T10:46:53.670Z,91.40
2023-01-07T10:49:43.588Z,91.30
2023-01-07T10:52:20.076Z,91.00
2023-01-07T10:55:41.431Z,91.10
2023-01-07T10:58:11.987Z,90.70
2023-01-07T11:00:39.991Z,90.20
2023-01-07T11:03:16.386Z,90.60
2023-01-07T11:05:44.086Z,90.60
2023-01-07T11:08:24.443Z,90.30
2023-01-07T11:10:51.290Z,90.40
2023-01-07T11:13:31.622Z,89.80
2023-01-07T11:16:11.113Z,89.80
2023-01-07T11:18:49.832Z,89.70
2023-01-07T11:21:43.836Z,90.00
2023-01-07T11:24:33.095Z,89.40
2023-01-07T11:27:20.977Z,89.40
2023-01-07T11:29:58.567Z,90.10
2023-01-07T11:32:28.397Z,90.70
2023-01-07T11:35:05.000Z,90.60
2023-01-07T11:37:36.453Z,90.70
2023-01-07T11:40:17.117Z,90.30
2023-01-07T11:42:46.855Z,91.10
2023-01-07T11:45:18.407Z,90.60
2023-01-07T11:48:06.129Z,90.40
2023-01-07T11:51:06.761Z,89.80
2023-01-07T11:53:46.304Z,90.40
2023-01-07T11:56:21.803Z,90.90
2023-01-07T11:58:51.343Z,90.70
2023-01-07T12:01:20.716Z,90.40
2023-01-07T12:03:56.818Z,90.10
2023-01-07T12:06:33.259Z,89.60
2023-01-07T12:09:17.921Z,89.70
2023-01-07T12:11:45.650Z,89.80
2023-01-07T12:14:31.452Z,88.90
2023-01-07T12:17:11.444Z,88.90
2023-01-07T12:20:01.274Z,89.20
2023-01-07T12:22:30.682Z,89.30
2023-01-07T12:25:10.373Z,88.70
2023-01-07T12:28:14.685Z,88.10
2023-01-07T12:30:57.111Z,87.60
2023-01-07T12:33:53.616Z,86.80
2023-01-07T12:36:48.888Z,86.40
2023-01-07T12:39:37.835Z,85.30
2023-01-07T12:44:51.812Z,77.30
2023-01-07T12:47:32.077Z,75.00
2023-01-07T12:50:15.254Z,76.70
2023-01-07T12:52:52.193Z,78.30
2023-01-07T12:55:29.497Z,79.50
2023-01-07T12:58:37.154Z,80.40
2023-01-07T13:01:44.875Z,81.40
2023-01-07T13:04:35.536Z,82.40
2023-01-07T13:07:05.633Z,82.90
2023-01-07T13:10:00.411Z,83.10
2023-01-07T13:12:45.442Z,82.80
2023-01-07T13:15:20.787Z,83.20
2023-01-07T13:17:53.815Z,83.70
2023-01-07T13:20:53.880Z,83.80
2023-01-07T13:23:38.378Z,83.80
2023-01-07T13:26:26.812Z,84.40
2023-01-07T13:29:21.914Z,84.90
2023-01-07T13:32:24.659Z,85.30
2023-01-07T13:35:13.106Z,85.00
2023-01-07T13:37:48.297Z,85.60
2023-01-07T13:40:20.901Z,85.70
2023-01-07T13:42:49.073Z,85.80
2023-01-07T13:45:26.295Z,85.80
2023-01-07T13:47:57.311Z,85.30
2023-01-07T13:50:37.959Z,85.30
2023-01-07T13:53:32.506Z,85.30
2023-01-07T13:56:17.775Z,85.30
2023-01-07T13:58:58.030Z,85.00
2023-01-07T14:01:27.477Z,85.30
2023-01-07T14:04:03.440Z,86.30
2023-01-07T14:06:30.029Z,86.20
2023-01-07T14:09:11.000Z,85.60
2023-01-07T14:11:41.785Z,86.60
2023-01-07T14:14:40.714Z,87.10
2023-01-07T14:17:28.582Z,86.80
2023-01-07T14:20:16.652Z,85.90
2023-01-07T14:23:02.274Z,85.70
2023-01-07T14:25:50.716Z,85.40
2023-01-07T14:28:36.128Z,85.60
2023-01-07T14:31:03.334Z,86.40
2023-01-07T14:33:29.962Z,86.10
2023-01-07T14:36:05.569Z,85.90
2023-01-07T14:38:32.198Z,86.10
2023-01-07T14:41:09.404Z,86.40
2023-01-07T14:43:48.327Z,86.20
2023-01-07T14:46:38.314Z,86.60
2023-01-07T14:49:05.403Z,86.70
2023-01-07T14:51:47.239Z,86.90
2023-01-07T14:54:45.941Z,87.10
2023-01-07T14:57:37.447Z,88.00
2023-01-07T15:00:16.631Z,88.20
2023-01-07T15:02:58.301Z,88.80
2023-01-07T15:05:39.039Z,89.20
2023-01-07T15:08:29.457Z,90.00
2023-01-07T15:11:18.025Z,90.20
2023-01-07T15:14:16.649Z,90.80
2023-01-07T15:16:47.307Z,91.30
2023-01-07T15:19:14.043Z,91.50
2023-01-07T15:21:49.822Z,91.40
2023-01-07T15:24:51.634Z,91.80
2023-01-07T15:27:44.608Z,92.30
2023-01-07T15:30:35.755Z,92.50
2023-01-07T15:33:29.459Z,92.70
2023-01-07T15:35:57.553Z,93.10
2023-01-07T15:38:50.236Z,93.10
2023-01-07T15:41:35.631Z,92.90
2023-01-07T15:44:24.139Z,93.10
2023-01-07T15:46:51.437Z,93.20
2023-01-07T15:49:29.581Z,93.30
2023-01-07T15:51:58.540Z,93.40
2023-01-07T15:54:30.343Z,93.40
2023-01-07T15:57:06.024Z,93.50
2023-01-07T15:59:42.269Z,93.40
2023-01-07T16:02:43.393Z,93.70
2023-01-07T16:05:10.680Z,93.70
2023-01-07T16:07:52.903Z,93.90
2023-01-07T16:10:34.195Z,93.70
2023-01-07T16:13:03.712Z,93.90
2023-01-07T16:15:37.718Z,93.60
2023-01-07T16:18:18.759Z,94.00
2023-01-07T16:21:06.946Z,94.20
2023-01-07T16:23:38.447Z,94.70
2023-01-07T16:26:18.574Z,94.80
2023-01-07T16:28:55.199Z,95.10
2023-01-07T16:31:25.400Z,95.30
2023-01-07T16:33:55.653Z,95.50
2023-01-07T16:36:29.966Z,95.50
2023-01-07T16:39:16.439Z,95.70
2023-01-07T16:41:43.303Z,95.90
2023-01-07T16:45:01.709Z,95.70
2023-01-07T16:51:37.229Z,95.60
2023-01-07T16:54:35.857Z,95.40
2023-01-07T17:00:54.033Z,95.00
2023-01-07T17:03:25.499Z,95.10
2023-01-07T17:06:08.131Z,95.20
2023-01-07T17:08:39.165Z,95.20
2023-01-07T17:11:23.497Z,95.40
2023-01-07T17:13:50.295Z,95.10
2023-01-07T17:16:33.041Z,95.70
2023-01-07T17:19:24.561Z,95.90
2023-01-07T17:21:51.585Z,95.20
2023-01-07T17:24:45.323Z,95.70
2023-01-07T17:27:22.640Z,96.20
2023-01-07T17:29:49.942Z,96.40
2023-01-07T17:32:16.787Z,96.30
2023-01-07T17:34:43.425Z,96.40
2023-01-07T17:37:13.952Z,96.30
2023-01-07T17:39:41.132Z,96.40
2023-01-07T17:42:40.452Z,97.20
2023-01-07T17:45:08.027Z,97.50
2023-01-07T17:47:34.751Z,97.70
2023-01-07T17:50:01.509Z,97.50
2023-01-07T17:52:28.882Z,97.10
2023-01-07T17:54:55.585Z,97.30
2023-01-07T17:57:22.356Z,97.70
2023-01-07T17:59:49.815Z,97.50
2023-01-07T18:02:30.124Z,97.30
2023-01-07T18:04:56.935Z,97.00
2023-01-07T18:07:23.596Z,97.00
2023-01-07T18:09:50.441Z,96.70
2023-01-07T18:12:31.012Z,97.00
2023-01-07T18:15:02.525Z,97.50
2023-01-07T18:17:29.854Z,97.80
2023-01-07T18:19:56.619Z,98.00
2023-01-07T18:22:24.825Z,97.80
2023-01-07T18:24:51.574Z,97.30
2023-01-07T18:27:19.023Z,97.30
2023-01-07T18:29:45.775Z,97.40
2023-01-07T18:32:12.434Z,97.30
2023-01-07T18:34:39.265Z,96.90
2023-01-07T18:37:06.027Z,97.10
2023-01-07T18:39:32.709Z,97.40
2023-01-07T18:41:59.394Z,97.10
2023-01-07T18:44:26.333Z,97.40
2023-01-07T18:46:53.049Z,97.50
2023-01-07T18:49:19.808Z,97.20
2023-01-07T18:51:47.957Z,96.70
2023-01-07T18:54:15.665Z,96.40
2023-01-07T18:56:44.608Z,96.70
2023-01-07T18:59:12.531Z,97.10
2023-01-07T19:01:39.409Z,97.30
2023-01-07T19:04:06.722Z,97.40
2023-01-07T19:06:33.575Z,98.00
2023-01-07T19:09:00.300Z,98.30
2023-01-07T19:11:27.132Z,98.30
2023-01-07T19:13:53.785Z,97.60
2023-01-07T19:16:21.024Z,97.20
2023-01-07T19:18:48.530Z,97.60
2023-01-07T19:21:15.432Z,97.80
2023-01-07T19:23:42.135Z,98.20
2023-01-07T19:26:09.991Z,98.00
2023-01-07T19:28:36.748Z,98.00
2023-01-07T19:31:07.974Z,97.90
2023-01-07T19:33:35.800Z,97.90
2023-01-07T19:36:21.987Z,98.00
2023-01-07T19:38:49.131Z,97.70
2023-01-07T19:41:18.971Z,97.70
2023-01-07T19:43:46.348Z,97.80
2023-01-07T19:46:14.720Z,97.30
2023-01-07T19:48:42.334Z,96.90
2023-01-07T19:51:10.171Z,97.60
2023-01-07T19:53:36.971Z,98.00
2023-01-07T19:56:06.964Z,98.00
2023-01-07T19:58:34.869Z,97.50
2023-01-07T20:01:14.327Z,97.60
2023-01-07T20:03:41.806Z,98.30
2023-01-07T20:06:14.832Z,98.30
2023-01-07T20:08:42.346Z,98.30
2023-01-07T20:11:09.360Z,98.30
2023-01-07T20:13:37.737Z,98.30
2023-01-07T20:16:05.411Z,98.30
2023-01-07T20:18:37.241Z,98.30
2023-01-07T20:21:04.127Z,98.30
2023-01-07T20:23:30.888Z,98.30
2023-01-07T20:25:57.581Z,98.30
2023-01-07T20:28:24.263Z,98.30
2023-01-07T20:30:50.896Z,98.30
2023-01-07T20:33:17.569Z,98.30
2023-01-07T20:35:46.442Z,98.30
2023-01-07T20:38:13.880Z,98.30
2023-01-07T20:40:41.855Z,98.30
2023-01-07T20:43:09.090Z,98.00
2023-01-07T20:45:38.302Z,98.20
2023-01-07T20:48:05.407Z,98.30
2023-01-07T20:50:35.551Z,98.10
2023-01-07T20:53:02.328Z,97.80
2023-01-07T20:55:29.021Z,98.20
2023-01-07T20:57:55.660Z,98.30
2023-01-07T21:00:22.338Z,98.30
2023-01-07T21:02:49.065Z,98.30
2023-01-07T21:05:20.173Z,98.30
2023-01-07T21:07:47.666Z,98.30
2023-01-07T21:10:16.575Z,98.30
2023-01-07T21:12:43.411Z,98.30
2023-01-07T21:15:12.786Z,98.30
2023-01-07T21:17:40.490Z,98.30
2023-01-07T21:20:13.220Z,98.30
2023-01-07T21:22:39.959Z,98.30
2023-01-07T21:25:10.117Z,98.30
2023-01-07T21:27:38.016Z,98.30
2023-01-07T21:30:06.400Z,98.30
2023-01-07T21:32:35.104Z,98.30
2023-01-07T21:35:01.938Z,98.30
2023-01-07T21:37:29.412Z,98.30
2023-01-07T21:39:56.198Z,98.30
2023-01-07T21:42:22.920Z,98.30
2023-01-07T21:44:49.556Z,98.30
2023-01-07T21:47:16.514Z,98.30
2023-01-07T21:49:43.757Z,98.30
2023-01-07T21:52:10.470Z,98.30
2023-01-07T21:54:37.161Z,98.30
2023-01-07T21:57:03.894Z,98.30
2023-01-07T21:59:30.537Z,98.30
2023-01-07T22:01:57.411Z,98.30
2023-01-07T22:04:24.271Z,98.30
2023-01-07T22:06:51.224Z,98.30
2023-01-07T22:09:17.907Z,98.30
2023-01-07T22:11:44.681Z,98.20
2023-01-07T22:14:16.098Z,98.30
2023-01-07T22:16:43.610Z,98.30
2023-01-07T22:19:12.144Z,98.30
2023-01-07T22:21:39.399Z,98.30
2023-01-07T22:24:07.075Z,98.30
2023-01-07T22:26:33.906Z,98.30
2023-01-07T22:29:03.321Z,98.30
2023-01-07T22:31:32.953Z,98.30
2023-01-07T22:33:59.698Z,98.30
2023-01-07T22:36:36.710Z,98.30
2023-01-07T22:39:10.560Z,98.30
2023-01-07T22:41:37.585Z,97.90
2023-01-07T22:44:08.227Z,97.80
2023-01-07T22:46:37.380Z,98.00
2023-01-07T22:49:05.400Z,97.90
2023-01-07T22:51:38.822Z,98.00
2023-01-07T22:54:05.941Z,98.20
2023-01-07T22:56:33.804Z,98.10
2023-01-07T22:59:00.663Z,98.00
2023-01-07T23:01:27.345Z,97.60
2023-01-07T23:03:54.119Z,97.50
2023-01-07T23:06:20.832Z,97.30
2023-01-07T23:08:47.838Z,97.30
2023-01-07T23:11:33.495Z,97.00
2023-01-07T23:14:00.215Z,97.40
2023-01-07T23:16:28.028Z,97.20
2023-01-07T23:18:54.714Z,97.50
2023-01-07T23:21:21.384Z,97.20
2023-01-07T23:23:48.072Z,97.10
2023-01-07T23:26:15.142Z,97.30
2023-01-07T23:28:42.143Z,97.10
2023-01-07T23:31:10.140Z,97.60
2023-01-07T23:33:36.924Z,97.40
2023-01-07T23:36:05.571Z,97.10
2023-01-07T23:38:32.853Z,97.20
2023-01-07T23:41:01.399Z,97.30
2023-01-07T23:43:28.167Z,97.90
2023-01-07T23:46:00.848Z,97.40
2023-01-07T23:48:29.650Z,96.90
2023-01-07T23:50:56.830Z,97.30
2023-01-07T23:53:24.858Z,97.60
2023-01-07T23:55:53.508Z,97.50
2023-01-07T23:58:20.832Z,97.50
